Oakville, CA (94562)

11:06 AM PDT on April 24, 2017 (GMT -0700)
Campbell Creek | | Change Station

Elev 1129 ft 38.42 °N, 122.43 °W | Updated 43 seconds ago

Overcast
Overcast
53.8 °F
Feels Like 53.8 °F
N
4.9
Wind Variable Wind from SW
Gusts 12.5 mph

Today
High -- | Low -- °F
--% Chance of Precip.
Yesterday
High -- | Low -- °F
Precip. -- in
Pressure 30.04 in
Visibility 10.0 miles
Clouds Scattered Clouds 1500 ft
Mostly Cloudy 7000 ft
Dew Point 52 °F
Humidity 95%
Rainfall 0.00 in
Snow Depth Not available.
6:20 AM 7:55 PM
Waning Crescent, 4% visible
METAR KAPC 241754Z 27009KT 10SM SCT015 BKN070 16/11 A3007 RMK AO2 SLP173 T01610111 10161 20122 50008
Pressure 30.04 in
Visibility 10.0 miles
Clouds Scattered Clouds 1500 ft
Mostly Cloudy 7000 ft
Dew Point 52 °F
Humidity 95%
Rainfall 0.00 in
Snow Depth Not available.
6:20 AM 7:55 PM
Waning Crescent, 4% visible
METAR KAPC 241754Z 27009KT 10SM SCT015 BKN070 16/11 A3007 RMK AO2 SLP173 T01610111 10161 20122 50008

Get Severe Weather Alerts

Thanks for signing up!

Be on the lookout for a verification email in your inbox.

You'll start receiving the daily forecast at 8 AM.

×

10-Day Weather Forecast

Almanac

Astronomy

Apr. 24, 2017 Rise Set
Actual Time
Civil Twilight
Nautical Twilight
Astronomical Twilight
Moon
Length of Visible Light
Length of Day
Tomorrow will be .
, % of the Moon is Illuminated

Today's Extremes

State Highs State Lows

Community

WunderPhotos

WunderBlog® & News

Nearby

Air Quality

  Air Quality AQ Index Pollutant
Not available.

Snow Depth

Station Depth Elevation

Earthquake Activity

City Distance Mag. Time & Date
Minimum magnitude displayed is 2.5.

Coastal Water Temperatures

Place Temperature

Stations

Nearby Weather Stations

Station Location Temp. Windchill Dew Point Humidity Wind Precip. Elev Updated Type
                   

Watches & Warnings

There are currently no watches in effect.